createdAt,value
2018-11-14T00:01:26.638Z,20.73
2018-11-14T00:03:55.348Z,21.80
2018-11-14T00:06:23.648Z,20.80
2018-11-14T00:08:52.545Z,21.93
2018-11-14T00:11:20.946Z,21.10
2018-11-14T00:13:49.268Z,21.87
2018-11-14T00:16:17.855Z,19.43
2018-11-14T00:18:46.516Z,19.53
2018-11-14T00:21:14.840Z,22.63
2018-11-14T00:23:43.175Z,20.23
2018-11-14T00:26:12.075Z,21.10
2018-11-14T00:28:40.414Z,22.37
2018-11-14T00:31:09.240Z,21.87
2018-11-14T00:33:38.222Z,20.87
2018-11-14T00:36:06.856Z,19.77
2018-11-14T00:38:36.075Z,21.93
2018-11-14T00:41:04.382Z,23.63
2018-11-14T00:43:32.671Z,21.47
2018-11-14T00:46:01.207Z,19.67
2018-11-14T00:48:29.534Z,20.20
2018-11-14T00:50:57.853Z,23.00
2018-11-14T00:53:26.350Z,22.17
2018-11-14T00:55:57.437Z,20.23
2018-11-14T00:58:26.614Z,20.67
2018-11-14T01:00:56.241Z,22.73
2018-11-14T01:03:24.993Z,23.43
2018-11-14T01:05:53.437Z,20.77
2018-11-14T01:08:22.350Z,20.43
2018-11-14T01:10:51.096Z,21.30
2018-11-14T01:13:20.522Z,22.53
2018-11-14T01:15:48.597Z,20.23
2018-11-14T01:18:18.864Z,19.87
2018-11-14T01:20:47.195Z,23.30
2018-11-14T01:23:15.497Z,20.30
2018-11-14T01:25:43.809Z,21.83
2018-11-14T01:28:14.405Z,19.93
2018-11-14T01:30:43.038Z,20.27
2018-11-14T01:33:12.274Z,20.37
2018-11-14T01:35:42.030Z,25.73
2018-11-14T01:38:12.838Z,21.40
2018-11-14T01:40:41.166Z,22.83
2018-11-14T01:43:09.486Z,20.43
2018-11-14T01:45:37.930Z,20.60
2018-11-14T01:48:07.235Z,22.57
2018-11-14T01:50:38.676Z,22.10
2018-11-14T01:53:06.993Z,21.97
2018-11-14T01:55:35.382Z,20.77
2018-11-14T01:58:06.662Z,22.67
2018-11-14T02:00:36.103Z,23.77
2018-11-14T02:03:04.937Z,21.73
2018-11-14T02:05:33.250Z,19.47
2018-11-14T02:08:03.379Z,20.47
2018-11-14T02:10:34.674Z,23.47
2018-11-14T02:13:03.307Z,23.63
2018-11-14T02:15:32.687Z,27.87
2018-11-14T02:18:01.412Z,21.93
2018-11-14T02:20:30.266Z,20.13
2018-11-14T02:23:02.601Z,21.90
2018-11-14T02:25:31.909Z,23.63
2018-11-14T02:28:01.283Z,22.73
2018-11-14T02:30:29.692Z,21.30
2018-11-14T02:32:58.688Z,23.27
2018-11-14T02:35:29.011Z,22.20
2018-11-14T02:37:57.761Z,23.27
2018-11-14T02:40:26.062Z,23.37
2018-11-14T02:42:54.376Z,23.00
2018-11-14T02:45:22.757Z,24.00
2018-11-14T02:47:51.080Z,26.53
2018-11-14T02:50:19.656Z,24.60
2018-11-14T02:52:48.214Z,24.87
2018-11-14T02:55:17.389Z,24.90
2018-11-14T02:57:46.896Z,26.13
2018-11-14T03:00:18.096Z,21.50
2018-11-14T03:02:46.485Z,25.77
2018-11-14T03:05:15.870Z,23.50
2018-11-14T03:07:45.437Z,23.67
2018-11-14T03:10:16.695Z,30.97
2018-11-14T03:12:45.014Z,26.03
2018-11-14T03:15:15.446Z,25.50
2018-11-14T03:17:45.305Z,25.03
2018-11-14T03:20:17.298Z,24.37
2018-11-14T03:22:45.717Z,22.30
2018-11-14T03:25:14.614Z,20.87
2018-11-14T03:27:42.966Z,19.40
2018-11-14T03:30:13.187Z,18.57
2018-11-14T03:32:42.275Z,20.50
2018-11-14T03:35:11.686Z,26.73
2018-11-14T03:37:40.475Z,21.23
2018-11-14T03:40:10.476Z,24.40
2018-11-14T03:42:38.813Z,19.50
2018-11-14T03:45:08.887Z,18.53
2018-11-14T03:47:37.322Z,17.67
2018-11-14T03:50:06.190Z,18.83
2018-11-14T03:52:34.471Z,21.57
2018-11-14T03:55:02.754Z,21.33
2018-11-14T03:57:31.591Z,22.43
2018-11-14T04:00:00.629Z,22.23
2018-11-14T04:02:29.217Z,22.20
2018-11-14T04:04:57.916Z,25.23
2018-11-14T04:07:26.798Z,23.07
2018-11-14T04:09:55.106Z,27.53
2018-11-14T04:12:23.503Z,21.53
2018-11-14T04:14:52.362Z,24.33
2018-11-14T04:17:21.471Z,27.00
2018-11-14T04:19:49.748Z,27.43
2018-11-14T04:22:18.118Z,29.60
2018-11-14T04:24:46.669Z,25.93
2018-11-14T04:27:15.012Z,32.60
2018-11-14T04:29:43.396Z,36.33
2018-11-14T04:32:11.735Z,23.63
2018-11-14T04:34:40.916Z,25.67
2018-11-14T04:37:09.589Z,23.13
2018-11-14T04:39:37.863Z,28.97
2018-11-14T04:42:06.161Z,26.87
2018-11-14T04:44:35.076Z,31.63
2018-11-14T04:47:03.438Z,33.83
2018-11-14T04:49:31.728Z,32.23
2018-11-14T04:52:00.249Z,30.77
2018-11-14T04:54:28.981Z,27.60
2018-11-14T04:56:57.355Z,26.80
2018-11-14T04:59:26.147Z,34.97
2018-11-14T05:01:54.938Z,29.67
2018-11-14T05:04:23.670Z,28.37
2018-11-14T05:06:52.082Z,31.70
2018-11-14T05:09:20.789Z,33.93
2018-11-14T05:11:50.081Z,32.93
2018-11-14T05:14:18.365Z,34.23
2018-11-14T05:16:46.693Z,37.37
2018-11-14T05:19:15.418Z,39.00
2018-11-14T05:21:43.755Z,37.70
2018-11-14T05:24:12.105Z,31.80
2018-11-14T05:26:40.446Z,30.30
2018-11-14T05:29:08.840Z,31.53
2018-11-14T05:31:37.224Z,32.80
2018-11-14T05:34:06.418Z,41.90
2018-11-14T05:36:35.090Z,38.17
2018-11-14T05:39:03.762Z,35.20
2018-11-14T05:41:32.056Z,32.70
2018-11-14T05:44:00.386Z,31.53
2018-11-14T05:46:29.303Z,35.37
2018-11-14T05:48:57.593Z,28.43
2018-11-14T05:51:25.944Z,29.73
2018-11-14T05:53:54.704Z,29.80
2018-11-14T05:56:23.005Z,25.77
2018-11-14T05:58:51.826Z,28.27
2018-11-14T06:01:20.117Z,25.80
2018-11-14T06:03:48.922Z,27.03
2018-11-14T06:06:17.241Z,28.17
2018-11-14T06:08:46.103Z,30.47
2018-11-14T06:11:14.545Z,26.57
2018-11-14T06:13:42.924Z,30.30
2018-11-14T06:16:11.296Z,29.47
2018-11-14T06:18:40.054Z,37.80
2018-11-14T06:21:08.471Z,33.47
2018-11-14T06:23:36.884Z,34.97
2018-11-14T06:26:05.224Z,29.73
2018-11-14T06:28:33.602Z,29.83
2018-11-14T06:31:01.985Z,29.17
2018-11-14T06:33:30.915Z,29.70
2018-11-14T06:35:59.805Z,33.10
2018-11-14T06:38:28.411Z,28.17
2018-11-14T06:40:56.725Z,28.23
2018-11-14T06:43:25.755Z,28.83
2018-11-14T06:45:54.474Z,30.07
2018-11-14T06:48:22.777Z,27.43
2018-11-14T06:50:51.054Z,29.97
2018-11-14T06:53:19.840Z,30.03
2018-11-14T06:55:48.168Z,25.13
2018-11-14T06:58:16.948Z,26.17
2018-11-14T07:00:45.182Z,27.20
2018-11-14T07:03:14.065Z,25.30
2018-11-14T07:05:42.433Z,24.33
2018-11-14T07:08:11.466Z,29.77
2018-11-14T07:10:40.242Z,28.37
2018-11-14T07:13:10.660Z,31.70
2018-11-14T07:15:39.558Z,26.30
2018-11-14T07:18:10.286Z,26.80
2018-11-14T07:20:40.010Z,26.50
2018-11-14T07:23:08.384Z,30.67
2018-11-14T07:25:36.746Z,23.90
2018-11-14T07:28:05.202Z,25.40
2018-11-14T07:30:34.218Z,23.77
2018-11-14T07:33:04.933Z,23.40
2018-11-14T07:35:33.853Z,24.73
2018-11-14T07:38:50.771Z,24.00
2018-11-14T07:41:23.755Z,20.90
2018-11-14T07:43:52.116Z,24.63
2018-11-14T07:46:21.594Z,21.17
2018-11-14T07:48:51.429Z,24.67
2018-11-14T07:51:19.793Z,21.47
2018-11-14T07:53:48.114Z,20.97
2018-11-14T07:56:17.238Z,21.67
2018-11-14T07:58:46.239Z,20.00
2018-11-14T08:01:14.718Z,16.93
2018-11-14T08:03:43.444Z,17.50
2018-11-14T08:06:11.774Z,19.17
2018-11-14T08:08:40.944Z,18.10
2018-11-14T08:11:10.161Z,18.80
2018-11-14T08:13:39.951Z,20.77
2018-11-14T08:16:08.305Z,22.20
2018-11-14T08:18:37.126Z,19.83
2018-11-14T08:21:06.698Z,17.30
2018-11-14T08:23:35.083Z,19.27
2018-11-14T08:26:03.627Z,16.73
2018-11-14T08:28:32.434Z,17.50
2018-11-14T08:31:00.740Z,18.73
2018-11-14T08:33:29.461Z,15.77
2018-11-14T08:35:57.800Z,20.77
2018-11-14T08:38:26.501Z,16.43
2018-11-14T08:40:54.853Z,14.20
2018-11-14T08:43:23.732Z,14.00
2018-11-14T08:45:52.378Z,16.53
2018-11-14T08:48:21.077Z,17.83
2018-11-14T08:50:49.770Z,14.93
2018-11-14T08:53:18.449Z,23.33
2018-11-14T08:55:46.939Z,16.07
2018-11-14T08:58:16.450Z,16.43
2018-11-14T09:00:45.448Z,15.43
2018-11-14T09:03:14.981Z,17.40
2018-11-14T09:05:43.272Z,12.57
2018-11-14T09:08:11.630Z,13.70
2018-11-14T09:10:39.974Z,15.57
2018-11-14T09:13:13.053Z,17.97
2018-11-14T09:15:41.448Z,14.97
2018-11-14T09:18:10.280Z,13.97
2018-11-14T09:20:38.640Z,16.80
2018-11-14T09:23:07.190Z,14.20
2018-11-14T09:25:35.654Z,15.23
2018-11-14T09:28:05.065Z,16.00
2018-11-14T09:30:33.347Z,14.80
2018-11-14T09:33:01.787Z,19.13
2018-11-14T09:35:30.450Z,17.33
2018-11-14T09:38:00.357Z,15.83
2018-11-14T09:40:29.862Z,16.40
2018-11-14T09:42:58.141Z,17.33
2018-11-14T09:45:28.249Z,16.43
2018-11-14T09:47:56.680Z,15.03
2018-11-14T09:50:26.212Z,11.83
2018-11-14T09:52:55.917Z,16.27
2018-11-14T09:55:24.300Z,14.80
2018-11-14T09:57:52.681Z,16.13
2018-11-14T10:00:22.629Z,14.97
2018-11-14T10:02:54.577Z,15.20
2018-11-14T10:05:23.723Z,15.53
2018-11-14T10:07:52.205Z,17.00
2018-11-14T10:10:21.475Z,14.80
2018-11-14T10:12:49.892Z,17.40
2018-11-14T10:17:41.285Z,17.03
2018-11-14T10:20:11.670Z,15.03
2018-11-14T10:22:40.750Z,15.17
2018-11-14T10:25:10.469Z,13.73
2018-11-14T10:27:39.302Z,13.57
2018-11-14T10:30:08.692Z,15.27
2018-11-14T10:32:36.811Z,16.40
2018-11-14T10:35:06.353Z,15.33
2018-11-14T10:37:35.001Z,13.10
2018-11-14T10:40:03.121Z,12.30
2018-11-14T10:42:31.213Z,13.17
2018-11-14T10:44:59.629Z,13.53
2018-11-14T10:47:27.731Z,11.77
2018-11-14T10:49:55.820Z,14.00
2018-11-14T10:52:23.934Z,15.67
2018-11-14T10:54:52.185Z,12.40
2018-11-14T10:57:21.799Z,13.60
2018-11-14T10:59:50.409Z,14.97
2018-11-14T11:02:23.976Z,12.40
2018-11-14T11:07:05.044Z,12.70
2018-11-14T11:09:39.315Z,12.63
2018-11-14T11:12:12.906Z,11.70
2018-11-14T11:14:46.561Z,12.70
2018-11-14T11:17:25.664Z,12.50
2018-11-14T11:19:54.046Z,12.10
2018-11-14T11:22:22.818Z,15.33
2018-11-14T11:24:51.751Z,11.13
2018-11-14T11:27:20.039Z,14.13
2018-11-14T11:29:48.394Z,12.60
2018-11-14T11:32:16.682Z,11.53
2018-11-14T11:34:45.395Z,12.77
2018-11-14T11:37:14.320Z,13.33
2018-11-14T11:39:42.722Z,12.57
2018-11-14T11:42:11.857Z,11.73
2018-11-14T11:44:40.874Z,12.03
2018-11-14T11:47:09.150Z,11.30
2018-11-14T11:49:37.430Z,11.37
2018-11-14T11:52:05.885Z,12.37
2018-11-14T11:54:34.183Z,12.13
2018-11-14T11:57:02.614Z,12.50
2018-11-14T11:59:30.957Z,12.53
2018-11-14T12:01:59.641Z,10.53
2018-11-14T12:04:28.265Z,11.07
2018-11-14T12:06:56.586Z,11.13
2018-11-14T12:09:24.932Z,15.30
2018-11-14T12:11:53.241Z,11.60
2018-11-14T12:14:22.233Z,13.77
2018-11-14T12:16:50.581Z,10.37
2018-11-14T12:19:19.919Z,12.80
2018-11-14T12:21:48.808Z,13.17
2018-11-14T12:24:17.150Z,13.07
2018-11-14T12:26:45.561Z,10.70
2018-11-14T12:29:13.937Z,13.00
2018-11-14T12:31:42.307Z,12.70
2018-11-14T12:34:11.211Z,11.97
2018-11-14T12:36:40.151Z,11.20
2018-11-14T12:39:09.193Z,10.63
2018-11-14T12:41:37.574Z,11.37
2018-11-14T12:44:05.966Z,11.47
2018-11-14T12:46:34.606Z,13.77
2018-11-14T12:49:03.004Z,12.70
2018-11-14T12:51:31.381Z,11.90
2018-11-14T12:54:00.478Z,11.10
2018-11-14T12:56:28.765Z,12.10
2018-11-14T12:58:57.115Z,11.97
2018-11-14T13:01:25.611Z,14.63
2018-11-14T13:03:54.229Z,11.27
2018-11-14T13:06:23.206Z,12.73
2018-11-14T13:08:51.534Z,13.70
2018-11-14T13:11:19.873Z,15.80
2018-11-14T13:13:49.636Z,14.57
2018-11-14T13:16:18.579Z,11.70
2018-11-14T13:18:47.446Z,15.80
2018-11-14T13:21:15.797Z,13.37
2018-11-14T13:23:44.154Z,14.13
2018-11-14T13:26:12.497Z,18.80
2018-11-14T13:28:40.829Z,20.80
2018-11-14T13:31:09.189Z,14.47
2018-11-14T13:33:38.013Z,15.00
2018-11-14T13:36:06.320Z,15.13
2018-11-14T13:38:35.280Z,12.77
2018-11-14T13:41:03.594Z,12.90
2018-11-14T13:43:31.889Z,12.07
2018-11-14T13:46:00.861Z,15.67
2018-11-14T13:48:29.170Z,12.23
2018-11-14T13:50:57.685Z,12.47
2018-11-14T13:53:25.896Z,10.23
2018-11-14T13:55:54.351Z,12.47
2018-11-14T13:58:22.958Z,12.13
2018-11-14T14:00:51.334Z,11.27
2018-11-14T14:03:19.992Z,11.60
2018-11-14T14:05:48.333Z,10.37
2018-11-14T14:08:16.611Z,14.47
2018-11-14T14:10:45.386Z,10.97
2018-11-14T14:13:14.219Z,11.40
2018-11-14T14:15:42.526Z,11.90
2018-11-14T14:18:11.393Z,10.37
2018-11-14T14:20:39.720Z,11.97
2018-11-14T14:23:08.037Z,11.47
2018-11-14T14:25:36.373Z,12.47
2018-11-14T14:28:04.669Z,13.43
2018-11-14T14:30:33.075Z,12.47
2018-11-14T14:33:01.395Z,10.83
2018-11-14T14:35:30.628Z,12.63
2018-11-14T14:37:59.445Z,11.50
2018-11-14T14:40:28.772Z,13.90
2018-11-14T14:42:57.061Z,12.83
2018-11-14T14:45:26.750Z,12.37
2018-11-14T14:47:55.130Z,11.47
2018-11-14T14:50:23.428Z,10.53
2018-11-14T14:52:51.775Z,11.23
2018-11-14T14:55:22.232Z,12.10
2018-11-14T14:57:50.578Z,12.70
2018-11-14T15:00:20.424Z,11.60
2018-11-14T15:02:48.943Z,13.60
2018-11-14T15:05:17.631Z,12.63
2018-11-14T15:07:46.689Z,12.33
2018-11-14T15:10:18.523Z,12.17
2018-11-14T15:12:47.047Z,11.43
2018-11-14T15:15:15.814Z,13.57
2018-11-14T15:17:45.095Z,13.87
2018-11-14T15:20:15.564Z,12.13
2018-11-14T15:22:44.028Z,11.53
2018-11-14T15:25:14.509Z,11.63
2018-11-14T15:27:43.236Z,12.40
2018-11-14T15:30:15.476Z,11.40
2018-11-14T15:32:43.887Z,12.57
2018-11-14T15:35:13.368Z,12.53
2018-11-14T15:37:42.160Z,13.00
2018-11-14T15:40:12.207Z,12.03
2018-11-14T15:42:40.656Z,12.20
2018-11-14T15:45:11.676Z,12.73
2018-11-14T15:47:40.055Z,12.27
2018-11-14T15:50:11.510Z,11.57
2018-11-14T15:52:40.134Z,11.20
2018-11-14T15:55:09.693Z,10.90
2018-11-14T15:57:38.817Z,11.23
2018-11-14T16:00:11.055Z,10.83
2018-11-14T16:02:39.758Z,11.33
2018-11-14T16:05:10.921Z,12.13
2018-11-14T16:07:40.348Z,11.20
2018-11-14T16:10:09.805Z,11.57
2018-11-14T16:12:39.206Z,11.20
2018-11-14T16:15:08.636Z,12.70
2018-11-14T16:17:37.851Z,11.30
2018-11-14T16:20:07.413Z,12.63
2018-11-14T16:22:36.562Z,13.50
2018-11-14T16:25:05.763Z,13.47
2018-11-14T16:27:34.326Z,12.70
2018-11-14T16:30:02.690Z,12.43
2018-11-14T16:32:31.050Z,12.57
2018-11-14T16:34:59.773Z,13.17
2018-11-14T16:37:28.627Z,14.17
2018-11-14T16:39:56.962Z,16.67
2018-11-14T16:42:25.277Z,13.83
2018-11-14T16:44:55.018Z,15.37
2018-11-14T16:47:23.307Z,15.90
2018-11-14T16:49:51.643Z,13.10
2018-11-14T16:52:20.021Z,15.30
2018-11-14T16:54:48.334Z,16.03
2018-11-14T16:57:17.085Z,15.17
2018-11-14T16:59:46.074Z,14.97
2018-11-14T17:02:14.457Z,16.03
2018-11-14T17:04:43.173Z,14.23
2018-11-14T17:07:11.551Z,14.87
2018-11-14T17:09:39.826Z,14.70
2018-11-14T17:14:45.813Z,17.93
2018-11-14T17:17:14.585Z,17.40
2018-11-14T17:19:42.880Z,18.27
2018-11-14T17:22:11.150Z,18.03
2018-11-14T17:24:39.464Z,16.93
2018-11-14T17:27:08.525Z,18.27
2018-11-14T17:29:37.207Z,16.30
2018-11-14T17:32:05.780Z,16.43
2018-11-14T17:34:35.394Z,15.40
2018-11-14T17:37:04.776Z,17.77
2018-11-14T17:39:33.472Z,19.77
2018-11-14T17:42:02.453Z,17.10
2018-11-14T17:44:30.994Z,17.07
2018-11-14T17:47:00.809Z,22.50
2018-11-14T17:49:29.139Z,21.93
2018-11-14T17:51:57.598Z,22.47
2018-11-14T17:54:28.122Z,16.10
2018-11-14T17:56:56.440Z,15.20
2018-11-14T17:59:24.859Z,16.23
2018-11-14T18:01:53.228Z,16.70
2018-11-14T18:04:25.075Z,15.90
2018-11-14T18:06:53.435Z,16.10
2018-11-14T18:09:21.740Z,19.77
2018-11-14T18:11:50.483Z,17.47
2018-11-14T18:14:19.289Z,18.73
2018-11-14T18:16:48.214Z,18.17
2018-11-14T18:19:16.902Z,15.67
2018-11-14T18:21:45.233Z,14.77
2018-11-14T18:24:13.536Z,13.37
2018-11-14T18:26:42.755Z,13.83
2018-11-14T18:29:11.166Z,12.73
2018-11-14T18:31:39.614Z,11.40
2018-11-14T18:34:14.770Z,13.77
2018-11-14T18:36:43.442Z,14.80
2018-11-14T18:39:13.454Z,14.50
2018-11-14T18:41:41.968Z,15.73
2018-11-14T18:44:10.351Z,12.23
2018-11-14T18:46:39.305Z,13.57
2018-11-14T18:49:07.639Z,12.77
2018-11-14T18:51:35.963Z,13.50
2018-11-14T18:54:04.892Z,13.13
2018-11-14T18:56:34.484Z,14.07
2018-11-14T18:59:02.877Z,14.63
2018-11-14T19:01:31.194Z,13.40
2018-11-14T19:04:00.032Z,13.50
2018-11-14T19:06:28.990Z,16.33
2018-11-14T19:08:57.306Z,15.30
2018-11-14T19:11:26.035Z,14.10
2018-11-14T19:13:54.842Z,14.93
2018-11-14T19:16:23.185Z,16.30
2018-11-14T19:18:52.120Z,12.43
2018-11-14T19:21:20.420Z,14.83
2018-11-14T19:23:48.774Z,14.00
2018-11-14T19:26:17.174Z,15.33
2018-11-14T19:28:45.963Z,14.23
2018-11-14T19:31:14.801Z,16.13
2018-11-14T19:33:43.608Z,15.23
2018-11-14T19:36:12.098Z,15.83
2018-11-14T19:38:41.669Z,14.43
2018-11-14T19:41:10.217Z,14.67
2018-11-14T19:43:38.702Z,14.50
2018-11-14T19:46:08.418Z,15.00
2018-11-14T19:48:36.730Z,13.73
2018-11-14T19:51:05.646Z,14.73
2018-11-14T19:53:33.983Z,16.40
2018-11-14T19:56:03.415Z,14.83
2018-11-14T19:58:31.826Z,15.37
2018-11-14T20:01:00.885Z,15.13
2018-11-14T20:03:30.025Z,17.63
2018-11-14T20:05:58.862Z,17.97
2018-11-14T20:08:27.239Z,16.53
2018-11-14T20:10:55.567Z,17.67
2018-11-14T20:13:24.617Z,18.27
2018-11-14T20:15:54.279Z,18.53
2018-11-14T20:18:24.436Z,16.10
2018-11-14T20:20:52.895Z,19.07
2018-11-14T20:23:21.273Z,17.13
2018-11-14T20:25:49.879Z,17.67
2018-11-14T20:28:19.623Z,17.83
2018-11-14T20:30:47.992Z,17.13
2018-11-14T20:33:17.064Z,15.60
2018-11-14T20:35:46.441Z,17.20
2018-11-14T20:38:15.326Z,18.20
2018-11-14T20:40:43.835Z,18.30
2018-11-14T20:43:12.924Z,19.37
2018-11-14T20:45:42.178Z,16.60
2018-11-14T20:48:11.605Z,18.53
2018-11-14T20:50:40.954Z,18.93
2018-11-14T20:53:09.365Z,19.77
2018-11-14T20:55:37.761Z,18.70
2018-11-14T20:58:06.490Z,18.77
2018-11-14T21:00:36.795Z,21.27
2018-11-14T21:03:07.382Z,17.27
2018-11-14T21:05:35.750Z,23.17
2018-11-14T21:08:04.176Z,23.13
2018-11-14T21:10:35.094Z,22.07
2018-11-14T21:13:04.024Z,25.83
2018-11-14T21:15:34.418Z,23.33
2018-11-14T21:18:03.579Z,22.40
2018-11-14T21:20:31.996Z,24.40
2018-11-14T21:23:00.484Z,25.10
2018-11-14T21:25:28.895Z,25.23
2018-11-14T21:27:57.995Z,23.07
2018-11-14T21:30:27.593Z,25.13
2018-11-14T21:32:55.857Z,20.53
2018-11-14T21:35:28.429Z,24.17
2018-11-14T21:37:58.654Z,24.63
2018-11-14T21:40:27.237Z,24.37
2018-11-14T21:42:55.672Z,20.37
2018-11-14T21:45:25.733Z,22.03
2018-11-14T21:47:59.674Z,23.00
2018-11-14T21:50:28.998Z,24.23
2018-11-14T21:52:57.763Z,21.60
2018-11-14T21:55:26.271Z,20.70
2018-11-14T21:57:55.191Z,23.63
2018-11-14T22:00:25.623Z,20.80
2018-11-14T22:02:56.091Z,23.17
2018-11-14T22:05:24.503Z,26.97
2018-11-14T22:07:52.826Z,24.87
2018-11-14T22:10:22.412Z,21.43
2018-11-14T22:12:51.344Z,23.47
2018-11-14T22:15:22.255Z,26.83
2018-11-14T22:17:52.597Z,30.60
2018-11-14T22:20:22.609Z,26.70
2018-11-14T22:22:51.370Z,26.53
2018-11-14T22:25:21.327Z,25.30
2018-11-14T22:27:50.130Z,27.80
2018-11-14T22:30:20.976Z,29.30
2018-11-14T22:32:50.106Z,27.30
2018-11-14T22:35:20.189Z,29.10
2018-11-14T22:37:49.180Z,31.63
2018-11-14T22:40:18.849Z,29.80
2018-11-14T22:42:47.430Z,32.83
2018-11-14T22:45:18.944Z,35.50
2018-11-14T22:47:48.222Z,33.60
2018-11-14T22:50:17.849Z,32.00
2018-11-14T22:52:46.883Z,29.00
2018-11-14T22:55:16.515Z,30.47
2018-11-14T22:57:46.098Z,32.10
2018-11-14T23:00:32.518Z,28.60
2018-11-14T23:03:02.981Z,33.87
2018-11-14T23:05:31.303Z,32.73
2018-11-14T23:07:59.990Z,30.13
2018-11-14T23:10:28.623Z,33.57
2018-11-14T23:12:57.292Z,30.57
2018-11-14T23:15:26.540Z,39.63
2018-11-14T23:17:55.773Z,34.47
2018-11-14T23:20:24.173Z,34.47
2018-11-14T23:22:53.330Z,35.70
2018-11-14T23:25:22.167Z,32.20
2018-11-14T23:27:52.155Z,32.97
2018-11-14T23:30:21.950Z,35.37
2018-11-14T23:32:51.326Z,35.40
2018-11-14T23:35:23.433Z,32.67
2018-11-14T23:37:56.707Z,34.27
2018-11-14T23:40:25.566Z,31.27
2018-11-14T23:42:53.916Z,32.00
2018-11-14T23:45:23.861Z,32.23
2018-11-14T23:47:52.907Z,35.87
2018-11-14T23:50:25.367Z,36.10
2018-11-14T23:52:54.923Z,30.87
2018-11-14T23:55:24.586Z,30.50
2018-11-14T23:57:52.882Z,26.80
